sensor_id;sensor_type;location;lat;lon;timestamp;pressure;altitude;pressure_sealevel;temperature
80680;BMP280;70043;51.982;-8.514;2023-12-28T00:02:09;97410.53;;;8.57
80680;BMP280;70043;51.982;-8.514;2023-12-28T00:04:36;97422.00;;;8.60
80680;BMP280;70043;51.982;-8.514;2023-12-28T00:07:04;97421.25;;;8.59
80680;BMP280;70043;51.982;-8.514;2023-12-28T00:09:31;97434.94;;;8.58
80680;BMP280;70043;51.982;-8.514;2023-12-28T00:11:58;97454.28;;;8.59
80680;BMP280;70043;51.982;-8.514;2023-12-28T00:14:25;97455.56;;;8.62
80680;BMP280;70043;51.982;-8.514;2023-12-28T00:16:52;97456.09;;;8.64
80680;BMP280;70043;51.982;-8.514;2023-12-28T00:19:19;97463.28;;;8.67
80680;BMP280;70043;51.982;-8.514;2023-12-28T00:21:47;97469.38;;;8.66
80680;BMP280;70043;51.982;-8.514;2023-12-28T00:24:16;97470.34;;;8.65
80680;BMP280;70043;51.982;-8.514;2023-12-28T00:26:43;97483.28;;;8.63
80680;BMP280;70043;51.982;-8.514;2023-12-28T00:29:10;97458.63;;;8.64
80680;BMP280;70043;51.982;-8.514;2023-12-28T00:31:37;97465.50;;;8.63
80680;BMP280;70043;51.982;-8.514;2023-12-28T00:34:04;97470.56;;;8.63
80680;BMP280;70043;51.982;-8.514;2023-12-28T00:36:31;97471.13;;;8.65
80680;BMP280;70043;51.982;-8.514;2023-12-28T00:38:58;97485.59;;;8.65
80680;BMP280;70043;51.982;-8.514;2023-12-28T00:41:26;97492.47;;;8.64
80680;BMP280;70043;51.982;-8.514;2023-12-28T00:43:53;97500.63;;;8.66
80680;BMP280;70043;51.982;-8.514;2023-12-28T00:46:20;97505.28;;;8.69
80680;BMP280;70043;51.982;-8.514;2023-12-28T00:48:47;97514.16;;;8.72
80680;BMP280;70043;51.982;-8.514;2023-12-28T00:51:15;97522.31;;;8.69
80680;BMP280;70043;51.982;-8.514;2023-12-28T00:53:42;97528.66;;;8.71
80680;BMP280;70043;51.982;-8.514;2023-12-28T00:56:09;97522.69;;;8.77
80680;BMP280;70043;51.982;-8.514;2023-12-28T00:58:40;97516.81;;;8.77
80680;BMP280;70043;51.982;-8.514;2023-12-28T01:01:09;97517.81;;;8.76
80680;BMP280;70043;51.982;-8.514;2023-12-28T01:03:36;97530.75;;;8.74
80680;BMP280;70043;51.982;-8.514;2023-12-28T01:06:04;97530.75;;;8.74
80680;BMP280;70043;51.982;-8.514;2023-12-28T01:08:31;97528.00;;;8.76
80680;BMP280;70043;51.982;-8.514;2023-12-28T01:10:59;97547.78;;;8.74
80680;BMP280;70043;51.982;-8.514;2023-12-28T01:13:27;97540.94;;;8.74
80680;BMP280;70043;51.982;-8.514;2023-12-28T01:15:55;97559.72;;;8.73
80680;BMP280;70043;51.982;-8.514;2023-12-28T01:18:22;97555.63;;;8.72
80680;BMP280;70043;51.982;-8.514;2023-12-28T01:20:49;97567.34;;;8.73
80680;BMP280;70043;51.982;-8.514;2023-12-28T01:23:16;97574.75;;;8.75
80680;BMP280;70043;51.982;-8.514;2023-12-28T01:25:43;97574.41;;;8.71
80680;BMP280;70043;51.982;-8.514;2023-12-28T01:28:10;97587.91;;;8.72
80680;BMP280;70043;51.982;-8.514;2023-12-28T01:30:37;97581.56;;;8.69
80680;BMP280;70043;51.982;-8.514;2023-12-28T01:33:05;97586.34;;;8.71
80680;BMP280;70043;51.982;-8.514;2023-12-28T01:35:32;97595.03;;;8.70
80680;BMP280;70043;51.982;-8.514;2023-12-28T01:37:59;97594.28;;;8.69
80680;BMP280;70043;51.982;-8.514;2023-12-28T01:40:27;97593.50;;;8.69
80680;BMP280;70043;51.982;-8.514;2023-12-28T01:42:54;97598.25;;;8.65
80680;BMP280;70043;51.982;-8.514;2023-12-28T01:45:21;97594.72;;;8.66
80680;BMP280;70043;51.982;-8.514;2023-12-28T01:47:48;97600.22;;;8.63
80680;BMP280;70043;51.982;-8.514;2023-12-28T01:50:17;97610.63;;;8.62
80680;BMP280;70043;51.982;-8.514;2023-12-28T01:52:44;97613.16;;;8.62
80680;BMP280;70043;51.982;-8.514;2023-12-28T01:55:12;97615.22;;;8.60
80680;BMP280;70043;51.982;-8.514;2023-12-28T01:57:40;97625.88;;;8.62
80680;BMP280;70043;51.982;-8.514;2023-12-28T02:00:07;97639.34;;;8.62
80680;BMP280;70043;51.982;-8.514;2023-12-28T02:02:35;97639.13;;;8.64
80680;BMP280;70043;51.982;-8.514;2023-12-28T02:05:03;97642.69;;;8.63
80680;BMP280;70043;51.982;-8.514;2023-12-28T02:07:32;97646.56;;;8.65
80680;BMP280;70043;51.982;-8.514;2023-12-28T02:09:59;97646.56;;;8.65
80680;BMP280;70043;51.982;-8.514;2023-12-28T02:12:26;97648.66;;;8.68
80680;BMP280;70043;51.982;-8.514;2023-12-28T02:14:53;97657.84;;;8.69
80680;BMP280;70043;51.982;-8.514;2023-12-28T02:17:23;97656.72;;;8.65
80680;BMP280;70043;51.982;-8.514;2023-12-28T02:19:54;97662.78;;;8.64
80680;BMP280;70043;51.982;-8.514;2023-12-28T02:22:24;97661.03;;;8.65
80680;BMP280;70043;51.982;-8.514;2023-12-28T02:25:07;97660.03;;;8.66
80680;BMP280;70043;51.982;-8.514;2023-12-28T02:27:35;97655.50;;;8.68
80680;BMP280;70043;51.982;-8.514;2023-12-28T02:30:06;97649.66;;;8.67
80680;BMP280;70043;51.982;-8.514;2023-12-28T02:32:52;97652.41;;;8.66
80680;BMP280;70043;51.982;-8.514;2023-12-28T02:35:24;97651.41;;;8.67
80680;BMP280;70043;51.982;-8.514;2023-12-28T02:37:56;97664.91;;;8.67
80680;BMP280;70043;51.982;-8.514;2023-12-28T02:40:25;97667.22;;;8.69
80680;BMP280;70043;51.982;-8.514;2023-12-28T02:42:53;97659.59;;;8.69
80680;BMP280;70043;51.982;-8.514;2023-12-28T02:45:20;97670.25;;;8.71
80680;BMP280;70043;51.982;-8.514;2023-12-28T02:47:47;97663.97;;;8.73
80680;BMP280;70043;51.982;-8.514;2023-12-28T02:50:14;97673.91;;;8.75
80680;BMP280;70043;51.982;-8.514;2023-12-28T02:52:41;97672.94;;;8.76
80680;BMP280;70043;51.982;-8.514;2023-12-28T02:55:08;97678.78;;;8.76
80680;BMP280;70043;51.982;-8.514;2023-12-28T02:57:38;97692.50;;;8.75
80680;BMP280;70043;51.982;-8.514;2023-12-28T03:00:06;97689.19;;;8.75
80680;BMP280;70043;51.982;-8.514;2023-12-28T03:02:35;97694.25;;;8.75
80680;BMP280;70043;51.982;-8.514;2023-12-28T03:07:30;97671.16;;;8.76
80680;BMP280;70043;51.982;-8.514;2023-12-28T03:09:57;97667.84;;;8.76
80680;BMP280;70043;51.982;-8.514;2023-12-28T03:12:24;97678.00;;;8.76
80680;BMP280;70043;51.982;-8.514;2023-12-28T03:14:52;97669.38;;;8.77
80680;BMP280;70043;51.982;-8.514;2023-12-28T03:17:19;97672.50;;;8.79
80680;BMP280;70043;51.982;-8.514;2023-12-28T03:19:46;97684.94;;;8.80
80680;BMP280;70043;51.982;-8.514;2023-12-28T03:22:13;97696.91;;;8.80
80680;BMP280;70043;51.982;-8.514;2023-12-28T03:24:41;97705.06;;;8.82
80680;BMP280;70043;51.982;-8.514;2023-12-28T03:27:08;97676.09;;;8.83
80680;BMP280;70043;51.982;-8.514;2023-12-28T03:29:35;97680.50;;;8.87
80680;BMP280;70043;51.982;-8.514;2023-12-28T03:32:04;97674.66;;;8.87
80680;BMP280;70043;51.982;-8.514;2023-12-28T03:34:31;97679.50;;;8.88
80680;BMP280;70043;51.982;-8.514;2023-12-28T03:36:58;97666.81;;;8.88
80680;BMP280;70043;51.982;-8.514;2023-12-28T03:39:25;97681.34;;;8.93
80680;BMP280;70043;51.982;-8.514;2023-12-28T03:41:52;97687.00;;;8.95
80680;BMP280;70043;51.982;-8.514;2023-12-28T03:44:19;97683.66;;;8.94
80680;BMP280;70043;51.982;-8.514;2023-12-28T03:46:47;97674.72;;;8.92
80680;BMP280;70043;51.982;-8.514;2023-12-28T03:49:17;97666.31;;;8.91
80680;BMP280;70043;51.982;-8.514;2023-12-28T03:51:44;97681.78;;;8.90
80680;BMP280;70043;51.982;-8.514;2023-12-28T03:54:11;97676.69;;;8.90
80680;BMP280;70043;51.982;-8.514;2023-12-28T03:56:38;97684.31;;;8.90
80680;BMP280;70043;51.982;-8.514;2023-12-28T03:59:06;97682.81;;;8.89
80680;BMP280;70043;51.982;-8.514;2023-12-28T04:01:33;97672.09;;;8.87
80680;BMP280;70043;51.982;-8.514;2023-12-28T04:04:00;97670.78;;;8.84
80680;BMP280;70043;51.982;-8.514;2023-12-28T04:06:28;97672.00;;;8.82
80680;BMP280;70043;51.982;-8.514;2023-12-28T04:08:55;97672.50;;;8.79
80680;BMP280;70043;51.982;-8.514;2023-12-28T04:11:22;97677.13;;;8.70
80680;BMP280;70043;51.982;-8.514;2023-12-28T04:13:49;97675.84;;;8.68
80680;BMP280;70043;51.982;-8.514;2023-12-28T04:16:17;97678.38;;;8.68
80680;BMP280;70043;51.982;-8.514;2023-12-28T04:18:44;97676.13;;;8.71
80680;BMP280;70043;51.982;-8.514;2023-12-28T04:21:11;97675.34;;;8.71
80680;BMP280;70043;51.982;-8.514;2023-12-28T04:23:40;97675.69;;;8.74
80680;BMP280;70043;51.982;-8.514;2023-12-28T04:26:08;97682.00;;;8.72
80680;BMP280;70043;51.982;-8.514;2023-12-28T04:28:35;97674.06;;;8.68
80680;BMP280;70043;51.982;-8.514;2023-12-28T04:31:03;97678.44;;;8.73
80680;BMP280;70043;51.982;-8.514;2023-12-28T04:33:30;97681.22;;;8.71
80680;BMP280;70043;51.982;-8.514;2023-12-28T04:35:57;97672.94;;;8.76
80680;BMP280;70043;51.982;-8.514;2023-12-28T04:38:24;97666.28;;;8.75
80680;BMP280;70043;51.982;-8.514;2023-12-28T04:40:52;97663.97;;;8.73
80680;BMP280;70043;51.982;-8.514;2023-12-28T04:43:19;97664.88;;;8.79
80680;BMP280;70043;51.982;-8.514;2023-12-28T04:45:49;97655.47;;;8.79
80680;BMP280;70043;51.982;-8.514;2023-12-28T04:48:16;97657.22;;;8.79
80680;BMP280;70043;51.982;-8.514;2023-12-28T04:50:46;97641.84;;;8.74
80680;BMP280;70043;51.982;-8.514;2023-12-28T04:53:13;97639.53;;;8.72
80680;BMP280;70043;51.982;-8.514;2023-12-28T04:55:40;97637.97;;;8.71
80680;BMP280;70043;51.982;-8.514;2023-12-28T04:58:10;97638.97;;;8.70
80680;BMP280;70043;51.982;-8.514;2023-12-28T05:00:37;97633.19;;;8.70
80680;BMP280;70043;51.982;-8.514;2023-12-28T05:03:04;97637.75;;;8.73
80680;BMP280;70043;51.982;-8.514;2023-12-28T05:05:31;97635.78;;;8.75
80680;BMP280;70043;51.982;-8.514;2023-12-28T05:07:58;97639.44;;;8.79
80680;BMP280;70043;51.982;-8.514;2023-12-28T05:10:25;97643.25;;;8.81
80680;BMP280;70043;51.982;-8.514;2023-12-28T05:12:52;97652.19;;;8.84
80680;BMP280;70043;51.982;-8.514;2023-12-28T05:15:21;97667.47;;;8.84
80680;BMP280;70043;51.982;-8.514;2023-12-28T05:17:48;97667.91;;;8.81
80680;BMP280;70043;51.982;-8.514;2023-12-28T05:20:16;97665.13;;;8.82
80680;BMP280;70043;51.982;-8.514;2023-12-28T05:22:43;97642.97;;;8.78
80680;BMP280;70043;51.982;-8.514;2023-12-28T05:25:10;97620.34;;;8.81
80680;BMP280;70043;51.982;-8.514;2023-12-28T05:27:37;97625.22;;;8.83
80680;BMP280;70043;51.982;-8.514;2023-12-28T05:30:06;97625.44;;;8.81
80680;BMP280;70043;51.982;-8.514;2023-12-28T05:32:36;97625.22;;;8.83
80680;BMP280;70043;51.982;-8.514;2023-12-28T05:35:03;97620.69;;;8.85
80680;BMP280;70043;51.982;-8.514;2023-12-28T05:37:30;97615.38;;;8.86
80680;BMP280;70043;51.982;-8.514;2023-12-28T05:39:57;97625.56;;;8.86
80680;BMP280;70043;51.982;-8.514;2023-12-28T05:42:24;97624.78;;;8.86
80680;BMP280;70043;51.982;-8.514;2023-12-28T05:44:51;97610.28;;;8.86
80680;BMP280;70043;51.982;-8.514;2023-12-28T05:47:18;97612.63;;;8.88
80680;BMP280;70043;51.982;-8.514;2023-12-28T05:49:46;97614.13;;;8.89
80680;BMP280;70043;51.982;-8.514;2023-12-28T05:52:13;97617.97;;;8.91
80680;BMP280;70043;51.982;-8.514;2023-12-28T05:54:42;97616.22;;;8.92
80680;BMP280;70043;51.982;-8.514;2023-12-28T05:57:09;97611.59;;;8.89
80680;BMP280;70043;51.982;-8.514;2023-12-28T05:59:37;97610.84;;;8.88
80680;BMP280;70043;51.982;-8.514;2023-12-28T06:02:05;97605.97;;;8.87
80680;BMP280;70043;51.982;-8.514;2023-12-28T06:04:32;97600.34;;;8.85
80680;BMP280;70043;51.982;-8.514;2023-12-28T06:07:03;97592.09;;;8.78
80680;BMP280;70043;51.982;-8.514;2023-12-28T06:09:30;97588.78;;;8.77
80680;BMP280;70043;51.982;-8.514;2023-12-28T06:11:57;97595.69;;;8.82
80680;BMP280;70043;51.982;-8.514;2023-12-28T06:14:24;97596.59;;;8.87
80680;BMP280;70043;51.982;-8.514;2023-12-28T06:16:51;97586.25;;;8.94
80680;BMP280;70043;51.982;-8.514;2023-12-28T06:19:18;97586.78;;;8.96
80680;BMP280;70043;51.982;-8.514;2023-12-28T06:21:45;97591.41;;;8.99
80680;BMP280;70043;51.982;-8.514;2023-12-28T06:24:13;97581.75;;;9.01
80680;BMP280;70043;51.982;-8.514;2023-12-28T06:26:40;97577.66;;;9.00
80680;BMP280;70043;51.982;-8.514;2023-12-28T06:29:08;97567.47;;;9.00
80680;BMP280;70043;51.982;-8.514;2023-12-28T06:31:35;97581.53;;;9.03
80680;BMP280;70043;51.982;-8.514;2023-12-28T06:34:02;97565.50;;;9.02
80680;BMP280;70043;51.982;-8.514;2023-12-28T06:36:29;97576.97;;;9.05
80680;BMP280;70043;51.982;-8.514;2023-12-28T06:38:56;97561.50;;;9.06
80680;BMP280;70043;51.982;-8.514;2023-12-28T06:41:25;97555.63;;;9.06
80680;BMP280;70043;51.982;-8.514;2023-12-28T06:43:52;97554.63;;;9.07
80680;BMP280;70043;51.982;-8.514;2023-12-28T06:46:19;97535.56;;;9.09
80680;BMP280;70043;51.982;-8.514;2023-12-28T06:48:46;97530.00;;;9.12
80680;BMP280;70043;51.982;-8.514;2023-12-28T06:51:17;97538.97;;;9.15
80680;BMP280;70043;51.982;-8.514;2023-12-28T06:53:44;97542.03;;;9.17
80680;BMP280;70043;51.982;-8.514;2023-12-28T06:56:11;97541.03;;;9.18
80680;BMP280;70043;51.982;-8.514;2023-12-28T06:58:40;97539.78;;;9.20
80680;BMP280;70043;51.982;-8.514;2023-12-28T07:01:07;97523.50;;;9.21
80680;BMP280;70043;51.982;-8.514;2023-12-28T07:03:34;97531.69;;;9.23
80680;BMP280;70043;51.982;-8.514;2023-12-28T07:06:02;97532.47;;;9.24
80680;BMP280;70043;51.982;-8.514;2023-12-28T07:08:29;97544.72;;;9.27
80680;BMP280;70043;51.982;-8.514;2023-12-28T07:10:56;97523.09;;;9.29
80680;BMP280;70043;51.982;-8.514;2023-12-28T07:13:23;97532.75;;;9.27
80680;BMP280;70043;51.982;-8.514;2023-12-28T07:15:52;97530.72;;;9.29
80680;BMP280;70043;51.982;-8.514;2023-12-28T07:18:19;97525.66;;;9.29
80680;BMP280;70043;51.982;-8.514;2023-12-28T07:20:46;97521.66;;;9.33
80680;BMP280;70043;51.982;-8.514;2023-12-28T07:23:13;97507.91;;;9.34
80680;BMP280;70043;51.982;-8.514;2023-12-28T07:25:40;97520.09;;;9.32
80680;BMP280;70043;51.982;-8.514;2023-12-28T07:28:07;97509.91;;;9.32
80680;BMP280;70043;51.982;-8.514;2023-12-28T07:30:33;97507.38;;;9.32
80680;BMP280;70043;51.982;-8.514;2023-12-28T07:33:02;97503.06;;;9.33
80680;BMP280;70043;51.982;-8.514;2023-12-28T07:35:29;97506.38;;;9.33
80680;BMP280;70043;51.982;-8.514;2023-12-28T07:37:56;97502.84;;;9.34
80680;BMP280;70043;51.982;-8.514;2023-12-28T07:40:23;97499.19;;;9.30
80680;BMP280;70043;51.982;-8.514;2023-12-28T07:42:50;97490.56;;;9.31
80680;BMP280;70043;51.982;-8.514;2023-12-28T07:45:17;97501.75;;;9.30
80680;BMP280;70043;51.982;-8.514;2023-12-28T07:47:48;97504.28;;;9.30
80680;BMP280;70043;51.982;-8.514;2023-12-28T07:50:17;97496.34;;;9.27
80680;BMP280;70043;51.982;-8.514;2023-12-28T07:52:44;97497.88;;;9.28
80680;BMP280;70043;51.982;-8.514;2023-12-28T07:55:12;97501.75;;;9.30
80680;BMP280;70043;51.982;-8.514;2023-12-28T07:57:39;97500.94;;;9.25
80680;BMP280;70043;51.982;-8.514;2023-12-28T08:00:07;97500.38;;;9.23
80680;BMP280;70043;51.982;-8.514;2023-12-28T08:02:34;97500.94;;;9.25
80680;BMP280;70043;51.982;-8.514;2023-12-28T08:05:01;97495.06;;;9.24
80680;BMP280;70043;51.982;-8.514;2023-12-28T08:07:30;97505.00;;;9.26
80680;BMP280;70043;51.982;-8.514;2023-12-28T08:09:57;97490.50;;;9.26
80680;BMP280;70043;51.982;-8.514;2023-12-28T08:12:23;97480.84;;;9.28
80680;BMP280;70043;51.982;-8.514;2023-12-28T08:14:52;97488.47;;;9.28
80680;BMP280;70043;51.982;-8.514;2023-12-28T08:17:19;97495.09;;;9.29
80680;BMP280;70043;51.982;-8.514;2023-12-28T08:19:46;97495.09;;;9.29
80680;BMP280;70043;51.982;-8.514;2023-12-28T08:22:13;97490.00;;;9.29
80680;BMP280;70043;51.982;-8.514;2023-12-28T08:24:41;97483.38;;;9.28
80680;BMP280;70043;51.982;-8.514;2023-12-28T08:27:09;97474.75;;;9.29
80680;BMP280;70043;51.982;-8.514;2023-12-28T08:29:35;97472.75;;;9.31
80680;BMP280;70043;51.982;-8.514;2023-12-28T08:32:03;97471.50;;;9.34
80680;BMP280;70043;51.982;-8.514;2023-12-28T08:34:30;97479.94;;;9.34
80680;BMP280;70043;51.982;-8.514;2023-12-28T08:36:57;97478.13;;;9.35
80680;BMP280;70043;51.982;-8.514;2023-12-28T08:39:24;97482.97;;;9.36
80680;BMP280;70043;51.982;-8.514;2023-12-28T08:41:52;97485.75;;;9.35
80680;BMP280;70043;51.982;-8.514;2023-12-28T08:44:19;97478.91;;;9.35
80680;BMP280;70043;51.982;-8.514;2023-12-28T08:46:46;97482.72;;;9.38
80680;BMP280;70043;51.982;-8.514;2023-12-28T08:49:13;97480.44;;;9.36
80680;BMP280;70043;51.982;-8.514;2023-12-28T08:51:41;97474.31;;;9.37
80680;BMP280;70043;51.982;-8.514;2023-12-28T08:54:08;97498.78;;;9.38
80680;BMP280;70043;51.982;-8.514;2023-12-28T08:56:35;97525.31;;;9.43
80680;BMP280;70043;51.982;-8.514;2023-12-28T08:59:03;97534.50;;;9.44
80680;BMP280;70043;51.982;-8.514;2023-12-28T09:01:30;97522.53;;;9.44
80680;BMP280;70043;51.982;-8.514;2023-12-28T09:03:58;97539.34;;;9.45
80680;BMP280;70043;51.982;-8.514;2023-12-28T09:06:25;97564.03;;;9.45
80680;BMP280;70043;51.982;-8.514;2023-12-28T09:08:52;97571.66;;;9.45
80680;BMP280;70043;51.982;-8.514;2023-12-28T09:11:20;97568.81;;;9.41
80680;BMP280;70043;51.982;-8.514;2023-12-28T09:13:47;97582.31;;;9.42
80680;BMP280;70043;51.982;-8.514;2023-12-28T09:16:15;97586.63;;;9.41
80680;BMP280;70043;51.982;-8.514;2023-12-28T09:18:43;97579.00;;;9.41
80680;BMP280;70043;51.982;-8.514;2023-12-28T09:21:10;97591.94;;;9.39
80680;BMP280;70043;51.982;-8.514;2023-12-28T09:23:37;97589.41;;;9.39
80680;BMP280;70043;51.982;-8.514;2023-12-28T09:26:06;97597.75;;;9.35
80680;BMP280;70043;51.982;-8.514;2023-12-28T09:28:34;97595.47;;;9.33
80680;BMP280;70043;51.982;-8.514;2023-12-28T09:31:01;97608.19;;;9.33
80680;BMP280;70043;51.982;-8.514;2023-12-28T09:33:29;97606.41;;;9.34
80680;BMP280;70043;51.982;-8.514;2023-12-28T09:35:57;97614.72;;;9.29
80680;BMP280;70043;51.982;-8.514;2023-12-28T09:38:24;97604.31;;;9.31
80680;BMP280;70043;51.982;-8.514;2023-12-28T09:40:54;97604.03;;;9.27
80680;BMP280;70043;51.982;-8.514;2023-12-28T09:43:23;97611.88;;;9.26
80680;BMP280;70043;51.982;-8.514;2023-12-28T09:45:50;97617.03;;;9.31
80680;BMP280;70043;51.982;-8.514;2023-12-28T09:48:19;97626.66;;;9.29
80680;BMP280;70043;51.982;-8.514;2023-12-28T09:50:50;97641.16;;;9.28
80680;BMP280;70043;51.982;-8.514;2023-12-28T09:53:20;97641.28;;;9.33
80680;BMP280;70043;51.982;-8.514;2023-12-28T09:55:48;97643.63;;;9.40
80680;BMP280;70043;51.982;-8.514;2023-12-28T09:58:17;97645.47;;;9.45
80680;BMP280;70043;51.982;-8.514;2023-12-28T10:00:46;97650.41;;;9.51
80680;BMP280;70043;51.982;-8.514;2023-12-28T10:03:13;97643.38;;;9.58
80680;BMP280;70043;51.982;-8.514;2023-12-28T10:05:41;97653.63;;;9.63
80680;BMP280;70043;51.982;-8.514;2023-12-28T10:08:11;97659.34;;;9.70
80680;BMP280;70043;51.982;-8.514;2023-12-28T10:10:39;97656.84;;;9.75
80680;BMP280;70043;51.982;-8.514;2023-12-28T10:13:06;97659.19;;;9.82
80680;BMP280;70043;51.982;-8.514;2023-12-28T10:15:34;97667.94;;;9.86
80680;BMP280;70043;51.982;-8.514;2023-12-28T10:18:01;97655.19;;;9.86
80680;BMP280;70043;51.982;-8.514;2023-12-28T10:20:28;97666.56;;;9.78
80680;BMP280;70043;51.982;-8.514;2023-12-28T10:22:55;97666.25;;;9.75
80680;BMP280;70043;51.982;-8.514;2023-12-28T10:25:24;97675.84;;;9.68
80680;BMP280;70043;51.982;-8.514;2023-12-28T10:27:53;97673.75;;;9.65
80680;BMP280;70043;51.982;-8.514;2023-12-28T10:30:20;97678.06;;;9.64
80680;BMP280;70043;51.982;-8.514;2023-12-28T10:32:48;97686.47;;;9.65
80680;BMP280;70043;51.982;-8.514;2023-12-28T10:35:15;97688.13;;;9.71
80680;BMP280;70043;51.982;-8.514;2023-12-28T10:37:43;97696.34;;;9.78
80680;BMP280;70043;51.982;-8.514;2023-12-28T10:40:13;97703.59;;;9.86
80680;BMP280;70043;51.982;-8.514;2023-12-28T10:42:52;97698.53;;;9.91
80680;BMP280;70043;51.982;-8.514;2023-12-28T10:45:24;97705.50;;;9.96
80680;BMP280;70043;51.982;-8.514;2023-12-28T10:48:02;97710.38;;;9.97
80680;BMP280;70043;51.982;-8.514;2023-12-28T10:50:37;97712.50;;;10.05
80680;BMP280;70043;51.982;-8.514;2023-12-28T10:53:16;97721.28;;;10.14
80680;BMP280;70043;51.982;-8.514;2023-12-28T10:55:53;97726.19;;;10.21
80680;BMP280;70043;51.982;-8.514;2023-12-28T10:58:36;97736.09;;;10.17
80680;BMP280;70043;51.982;-8.514;2023-12-28T11:01:07;97731.78;;;10.18
80680;BMP280;70043;51.982;-8.514;2023-12-28T11:03:37;97742.31;;;10.26
80680;BMP280;70043;51.982;-8.514;2023-12-28T11:06:08;97734.69;;;10.26
80680;BMP280;70043;51.982;-8.514;2023-12-28T11:08:35;97733.66;;;10.27
80680;BMP280;70043;51.982;-8.514;2023-12-28T11:11:04;97745.66;;;10.27
80680;BMP280;70043;51.982;-8.514;2023-12-28T11:13:35;97740.19;;;10.40
80680;BMP280;70043;51.982;-8.514;2023-12-28T11:16:03;97742.31;;;10.48
80680;BMP280;70043;51.982;-8.514;2023-12-28T11:18:30;97745.44;;;10.55
80680;BMP280;70043;51.982;-8.514;2023-12-28T11:20:57;97754.22;;;10.64
80680;BMP280;70043;51.982;-8.514;2023-12-28T11:23:25;97751.50;;;10.71
80680;BMP280;70043;51.982;-8.514;2023-12-28T11:25:52;97758.22;;;10.82
80680;BMP280;70043;51.982;-8.514;2023-12-28T11:28:19;97779.69;;;10.86
80680;BMP280;70043;51.982;-8.514;2023-12-28T11:30:48;97784.34;;;10.89
80680;BMP280;70043;51.982;-8.514;2023-12-28T11:33:15;97777.69;;;10.88
80680;BMP280;70043;51.982;-8.514;2023-12-28T11:35:42;97781.53;;;10.91
80680;BMP280;70043;51.982;-8.514;2023-12-28T11:38:11;97780.47;;;10.87
80680;BMP280;70043;51.982;-8.514;2023-12-28T11:40:42;97777.88;;;10.82
80680;BMP280;70043;51.982;-8.514;2023-12-28T11:43:15;97776.03;;;10.77
80680;BMP280;70043;51.982;-8.514;2023-12-28T11:45:50;97771.66;;;10.72
80680;BMP280;70043;51.982;-8.514;2023-12-28T11:48:24;97772.91;;;10.70
80680;BMP280;70043;51.982;-8.514;2023-12-28T11:50:54;97790.22;;;10.68
80680;BMP280;70043;51.982;-8.514;2023-12-28T11:53:22;97774.63;;;10.64
80680;BMP280;70043;51.982;-8.514;2023-12-28T11:55:49;97773.63;;;10.65
80680;BMP280;70043;51.982;-8.514;2023-12-28T11:58:16;97792.75;;;10.68
80680;BMP280;70043;51.982;-8.514;2023-12-28T12:00:43;97801.75;;;10.70
80680;BMP280;70043;51.982;-8.514;2023-12-28T12:03:12;97794.88;;;10.76
80680;BMP280;70043;51.982;-8.514;2023-12-28T12:05:39;97786.81;;;10.84
80680;BMP280;70043;51.982;-8.514;2023-12-28T12:08:06;97797.53;;;10.81
80680;BMP280;70043;51.982;-8.514;2023-12-28T12:10:35;97793.00;;;10.88
80680;BMP280;70043;51.982;-8.514;2023-12-28T12:13:03;97782.41;;;11.01
80680;BMP280;70043;51.982;-8.514;2023-12-28T12:15:30;97786.53;;;11.07
80680;BMP280;70043;51.982;-8.514;2023-12-28T12:17:57;97774.81;;;11.11
80680;BMP280;70043;51.982;-8.514;2023-12-28T12:20:25;97782.75;;;11.15
80680;BMP280;70043;51.982;-8.514;2023-12-28T12:22:57;97784.09;;;11.23
80680;BMP280;70043;51.982;-8.514;2023-12-28T12:25:24;97787.16;;;11.19
80680;BMP280;70043;51.982;-8.514;2023-12-28T12:27:52;97788.19;;;11.18
80680;BMP280;70043;51.982;-8.514;2023-12-28T12:30:19;97778.28;;;11.27
80680;BMP280;70043;51.982;-8.514;2023-12-28T12:32:48;97776.28;;;11.34
80680;BMP280;70043;51.982;-8.514;2023-12-28T12:35:15;97783.97;;;11.39
80680;BMP280;70043;51.982;-8.514;2023-12-28T12:37:46;97791.41;;;11.41
80680;BMP280;70043;51.982;-8.514;2023-12-28T12:40:15;97790.91;;;11.44
80680;BMP280;70043;51.982;-8.514;2023-12-28T12:42:43;97796.78;;;11.44
80680;BMP280;70043;51.982;-8.514;2023-12-28T12:45:18;97787.88;;;11.47
80680;BMP280;70043;51.982;-8.514;2023-12-28T12:47:46;97784.84;;;11.50
80680;BMP280;70043;51.982;-8.514;2023-12-28T12:50:13;97787.13;;;11.51
80680;BMP280;70043;51.982;-8.514;2023-12-28T12:52:41;97790.47;;;11.52
80680;BMP280;70043;51.982;-8.514;2023-12-28T12:55:12;97794.09;;;11.61
80680;BMP280;70043;51.982;-8.514;2023-12-28T12:57:39;97789.53;;;11.63
80680;BMP280;70043;51.982;-8.514;2023-12-28T13:00:09;97794.16;;;11.66
80680;BMP280;70043;51.982;-8.514;2023-12-28T13:02:37;97799.25;;;11.66
80680;BMP280;70043;51.982;-8.514;2023-12-28T13:05:05;97797.22;;;11.68
80680;BMP280;70043;51.982;-8.514;2023-12-28T13:07:32;97792.34;;;11.66
80680;BMP280;70043;51.982;-8.514;2023-12-28T13:09:59;97806.19;;;11.65
80680;BMP280;70043;51.982;-8.514;2023-12-28T13:12:28;97812.03;;;11.66
80680;BMP280;70043;51.982;-8.514;2023-12-28T13:14:55;97813.56;;;11.67
80680;BMP280;70043;51.982;-8.514;2023-12-28T13:17:22;97812.53;;;11.68
80680;BMP280;70043;51.982;-8.514;2023-12-28T13:19:49;97816.63;;;11.64
80680;BMP280;70043;51.982;-8.514;2023-12-28T13:22:16;97811.22;;;11.60
80680;BMP280;70043;51.982;-8.514;2023-12-28T13:24:43;97818.88;;;11.55
80680;BMP280;70043;51.982;-8.514;2023-12-28T13:27:10;97816.25;;;11.50
80680;BMP280;70043;51.982;-8.514;2023-12-28T13:29:38;97800.88;;;11.45
80680;BMP280;70043;51.982;-8.514;2023-12-28T13:32:06;97811.34;;;11.44
80680;BMP280;70043;51.982;-8.514;2023-12-28T13:34:33;97810.09;;;11.46
80680;BMP280;70043;51.982;-8.514;2023-12-28T13:37:00;97812.97;;;11.55
80680;BMP280;70043;51.982;-8.514;2023-12-28T13:39:28;97813.78;;;11.60
80680;BMP280;70043;51.982;-8.514;2023-12-28T13:41:55;97825.84;;;11.65
80680;BMP280;70043;51.982;-8.514;2023-12-28T13:44:22;97820.75;;;11.70
80680;BMP280;70043;51.982;-8.514;2023-12-28T13:46:50;97812.53;;;11.68
80680;BMP280;70043;51.982;-8.514;2023-12-28T13:49:19;97817.13;;;11.66
80680;BMP280;70043;51.982;-8.514;2023-12-28T13:51:46;97823.75;;;11.62
80680;BMP280;70043;51.982;-8.514;2023-12-28T13:54:13;97821.66;;;11.59
80680;BMP280;70043;51.982;-8.514;2023-12-28T13:56:40;97818.09;;;11.60
80680;BMP280;70043;51.982;-8.514;2023-12-28T13:59:07;97810.44;;;11.60
80680;BMP280;70043;51.982;-8.514;2023-12-28T14:01:34;97805.84;;;11.57
80680;BMP280;70043;51.982;-8.514;2023-12-28T14:04:03;97810.19;;;11.56
80680;BMP280;70043;51.982;-8.514;2023-12-28T14:06:30;97810.19;;;11.56
80680;BMP280;70043;51.982;-8.514;2023-12-28T14:08:57;97810.94;;;11.57
80680;BMP280;70043;51.982;-8.514;2023-12-28T14:11:24;97803.00;;;11.53
80680;BMP280;70043;51.982;-8.514;2023-12-28T14:13:51;97809.41;;;11.56